createdAt,value
2018-10-02T00:00:27.373Z,55.94
2018-10-02T00:01:27.337Z,55.89
2018-10-02T00:02:27.306Z,55.89
2018-10-02T00:03:27.173Z,55.88
2018-10-02T00:04:27.416Z,55.89
2018-10-02T00:05:27.786Z,55.87
2018-10-02T00:06:27.410Z,55.88
2018-10-02T00:07:27.231Z,55.96
2018-10-02T00:08:27.145Z,55.88
2018-10-02T00:09:27.413Z,55.87
2018-10-02T00:10:27.186Z,55.89
2018-10-02T00:11:27.269Z,55.94
2018-10-02T00:12:27.361Z,55.89
2018-10-02T00:13:27.354Z,55.9
2018-10-02T00:14:27.470Z,55.92
2018-10-02T00:15:27.232Z,55.9
2018-10-02T00:16:27.259Z,55.93
2018-10-02T00:17:27.799Z,55.88
2018-10-02T00:18:27.308Z,55.94
2018-10-02T00:19:27.200Z,55.91
2018-10-02T00:20:27.287Z,55.9
2018-10-02T00:21:27.663Z,55.89
2018-10-02T00:22:27.362Z,55.92
2018-10-02T00:23:27.432Z,55.9
2018-10-02T00:24:27.388Z,55.9
2018-10-02T00:25:27.248Z,55.84
2018-10-02T00:26:27.294Z,55.89
2018-10-02T00:27:27.265Z,55.86
2018-10-02T00:28:27.371Z,55.9
2018-10-02T00:29:27.738Z,55.94
2018-10-02T00:30:27.384Z,55.9
2018-10-02T00:31:27.771Z,55.9
2018-10-02T00:32:28.254Z,55.84
2018-10-02T00:33:27.606Z,55.89
2018-10-02T00:34:27.319Z,55.87
2018-10-02T00:35:27.337Z,55.88
2018-10-02T00:36:27.666Z,55.86
2018-10-02T00:37:27.382Z,55.91
2018-10-02T00:38:27.590Z,55.89
2018-10-02T00:39:27.653Z,55.92
2018-10-02T00:40:27.227Z,55.91
2018-10-02T00:41:27.323Z,55.94
2018-10-02T00:42:27.284Z,55.93
2018-10-02T00:43:27.140Z,55.91
2018-10-02T00:44:27.247Z,55.89
2018-10-02T00:45:27.692Z,55.92
2018-10-02T00:46:27.584Z,55.92
2018-10-02T00:47:27.619Z,55.91
2018-10-02T00:48:27.503Z,55.87
2018-10-02T00:49:27.395Z,55.88
2018-10-02T00:50:27.376Z,55.85
2018-10-02T00:51:27.333Z,55.84
2018-10-02T00:52:27.384Z,55.81
2018-10-02T00:53:27.150Z,55.92
2018-10-02T00:54:27.321Z,55.87
2018-10-02T00:55:27.190Z,55.87
2018-10-02T00:56:27.333Z,55.86
2018-10-02T00:57:27.668Z,55.85
2018-10-02T00:58:27.247Z,55.88
2018-10-02T00:59:27.236Z,55.86
2018-10-02T01:00:27.667Z,55.86
2018-10-02T01:01:27.267Z,55.94
2018-10-02T01:02:27.320Z,55.85
2018-10-02T01:03:27.251Z,55.88
2018-10-02T01:04:27.348Z,55.92
2018-10-02T01:05:27.401Z,55.84
2018-10-02T01:06:27.697Z,55.94
2018-10-02T01:07:27.840Z,55.93
2018-10-02T01:08:27.195Z,55.9
2018-10-02T01:09:27.326Z,55.92
2018-10-02T01:10:27.267Z,55.88
2018-10-02T01:11:27.338Z,55.9
2018-10-02T01:12:27.583Z,55.87
2018-10-02T01:13:27.387Z,55.92
2018-10-02T01:14:27.717Z,55.83
2018-10-02T01:15:27.177Z,55.89
2018-10-02T01:16:27.332Z,55.85
2018-10-02T01:17:27.251Z,55.89
2018-10-02T01:18:27.448Z,55.92
2018-10-02T01:19:27.627Z,55.86
2018-10-02T01:20:27.314Z,55.84
2018-10-02T01:21:27.413Z,55.9
2018-10-02T01:22:27.249Z,55.87
2018-10-02T01:23:27.167Z,55.87
2018-10-02T01:24:27.233Z,55.96
2018-10-02T01:25:27.780Z,55.88
2018-10-02T01:26:27.434Z,55.92
2018-10-02T01:27:27.289Z,55.86
2018-10-02T01:28:27.282Z,55.91
2018-10-02T01:29:27.187Z,55.9
2018-10-02T01:30:27.170Z,55.91
2018-10-02T01:31:27.285Z,55.89
2018-10-02T01:32:27.642Z,55.87
2018-10-02T01:33:27.279Z,55.87
2018-10-02T01:34:27.436Z,55.92
2018-10-02T01:35:27.325Z,55.88
2018-10-02T01:36:27.380Z,55.84
2018-10-02T01:37:27.237Z,55.82
2018-10-02T01:38:27.357Z,55.86
2018-10-02T01:39:27.321Z,55.84
2018-10-02T01:40:27.228Z,55.85
2018-10-02T01:41:27.176Z,55.85
2018-10-02T01:42:27.426Z,55.87
2018-10-02T01:43:27.375Z,55.82
2018-10-02T01:44:27.687Z,55.87
2018-10-02T01:45:27.305Z,55.85
2018-10-02T01:46:27.396Z,55.85
2018-10-02T01:47:27.231Z,55.85
2018-10-02T01:48:27.221Z,55.91
2018-10-02T01:49:27.386Z,55.88
2018-10-02T01:50:27.310Z,55.88
2018-10-02T01:51:27.170Z,55.84
2018-10-02T01:52:27.201Z,55.94
2018-10-02T01:53:27.260Z,55.91
2018-10-02T01:54:27.781Z,55.9
2018-10-02T01:55:27.310Z,55.89
2018-10-02T01:56:27.191Z,55.81
2018-10-02T01:57:27.126Z,55.85
2018-10-02T01:58:27.244Z,55.88
2018-10-02T01:59:27.181Z,55.81
2018-10-02T02:00:27.341Z,55.8
2018-10-02T02:01:27.324Z,55.82
2018-10-02T02:02:27.273Z,55.81
2018-10-02T02:03:27.276Z,55.83
2018-10-02T02:04:27.322Z,55.85
2018-10-02T02:05:27.352Z,55.8
2018-10-02T02:06:27.673Z,55.85
2018-10-02T02:07:27.198Z,55.81
2018-10-02T02:08:27.266Z,55.84
2018-10-02T02:09:27.258Z,55.85
2018-10-02T02:10:27.306Z,55.89
2018-10-02T02:11:27.495Z,55.88
2018-10-02T02:12:27.331Z,55.83
2018-10-02T02:13:27.319Z,55.79
2018-10-02T02:14:27.738Z,55.82
2018-10-02T02:15:27.611Z,55.84
2018-10-02T02:16:27.375Z,55.8
2018-10-02T02:17:27.230Z,55.82
2018-10-02T02:18:27.353Z,55.81
2018-10-02T02:19:27.646Z,55.79
2018-10-02T02:20:27.324Z,55.79
2018-10-02T02:21:27.261Z,55.81
2018-10-02T02:22:27.367Z,55.8
2018-10-02T02:23:27.430Z,55.85
2018-10-02T02:24:27.212Z,55.84
2018-10-02T02:25:27.438Z,55.8
2018-10-02T02:26:27.149Z,55.82
2018-10-02T02:27:27.776Z,55.76
2018-10-02T02:28:27.272Z,55.84
2018-10-02T02:29:27.088Z,55.76
2018-10-02T02:30:27.730Z,55.82
2018-10-02T02:31:27.267Z,55.8
2018-10-02T02:32:27.289Z,55.81
2018-10-02T02:33:27.266Z,55.79
2018-10-02T02:34:27.205Z,55.8
2018-10-02T02:35:27.665Z,55.78
2018-10-02T02:36:27.311Z,55.8
2018-10-02T02:37:27.270Z,55.78
2018-10-02T02:38:27.447Z,55.78
2018-10-02T02:39:27.499Z,55.79
2018-10-02T02:40:27.261Z,55.78
2018-10-02T02:41:27.236Z,55.78
2018-10-02T02:42:27.104Z,55.8
2018-10-02T02:43:27.156Z,55.8
2018-10-02T02:44:27.032Z,55.78
2018-10-02T02:45:27.505Z,55.8
2018-10-02T02:46:27.052Z,55.79
2018-10-02T02:47:27.284Z,55.82
2018-10-02T02:48:27.153Z,55.77
2018-10-02T02:49:27.303Z,55.74
2018-10-02T02:50:27.477Z,55.77
2018-10-02T02:51:27.210Z,55.79
2018-10-02T02:52:27.327Z,55.74
2018-10-02T02:53:27.233Z,55.83
2018-10-02T02:54:27.397Z,55.73
2018-10-02T02:55:27.267Z,55.76
2018-10-02T02:56:27.077Z,55.78
2018-10-02T02:57:27.249Z,55.74
2018-10-02T02:58:27.270Z,55.73
2018-10-02T02:59:27.533Z,55.82
2018-10-02T03:00:27.392Z,55.75
2018-10-02T03:01:27.188Z,55.75
2018-10-02T03:02:27.186Z,55.79
2018-10-02T03:03:27.427Z,55.7
2018-10-02T03:04:27.186Z,55.77
2018-10-02T03:05:27.310Z,55.71
2018-10-02T03:06:27.293Z,55.81
2018-10-02T03:07:27.493Z,55.79
2018-10-02T03:08:27.111Z,55.79
2018-10-02T03:09:27.384Z,55.74
2018-10-02T03:10:27.236Z,55.73
2018-10-02T03:11:27.308Z,55.72
2018-10-02T03:12:27.231Z,55.79
2018-10-02T03:13:27.198Z,55.75
2018-10-02T03:14:27.371Z,55.72
2018-10-02T03:15:27.437Z,55.71
2018-10-02T03:16:27.255Z,55.71
2018-10-02T03:17:27.423Z,55.71
2018-10-02T03:18:27.246Z,55.69
2018-10-02T03:19:27.799Z,55.74
2018-10-02T03:20:27.367Z,55.67
2018-10-02T03:21:27.260Z,55.7
2018-10-02T03:22:27.286Z,55.7
2018-10-02T03:23:27.205Z,55.73
2018-10-02T03:24:27.356Z,55.72
2018-10-02T03:25:27.398Z,55.71
2018-10-02T03:26:27.317Z,55.75
2018-10-02T03:27:27.263Z,55.74
2018-10-02T03:28:27.420Z,55.75
2018-10-02T03:29:27.534Z,55.69
2018-10-02T03:30:27.274Z,55.68
2018-10-02T03:31:27.779Z,55.72
2018-10-02T03:32:27.218Z,55.72
2018-10-02T03:33:27.299Z,55.73
2018-10-02T03:34:27.304Z,55.71
2018-10-02T03:35:27.221Z,55.8
2018-10-02T03:36:27.248Z,55.64
2018-10-02T03:37:27.574Z,55.68
2018-10-02T03:38:27.248Z,55.73
2018-10-02T03:39:27.309Z,55.72
2018-10-02T03:40:27.359Z,55.69
2018-10-02T03:41:27.484Z,55.69
2018-10-02T03:42:27.209Z,55.69
2018-10-02T03:43:27.390Z,55.68
2018-10-02T03:44:27.214Z,55.72
2018-10-02T03:45:27.331Z,55.72
2018-10-02T03:46:27.575Z,55.68
2018-10-02T03:47:27.209Z,55.66
2018-10-02T03:48:27.230Z,55.67
2018-10-02T03:49:27.199Z,55.67
2018-10-02T03:50:27.104Z,55.72
2018-10-02T03:51:27.242Z,55.68
2018-10-02T03:52:27.298Z,55.73
2018-10-02T03:53:27.278Z,55.67
2018-10-02T03:54:27.217Z,55.69
2018-10-02T03:55:27.149Z,55.72
2018-10-02T03:56:27.426Z,55.73
2018-10-02T03:57:27.516Z,55.68
2018-10-02T03:58:27.652Z,55.69
2018-10-02T03:59:27.223Z,55.72
2018-10-02T04:00:27.104Z,55.67
2018-10-02T04:01:27.216Z,55.71
2018-10-02T04:02:27.224Z,55.68
2018-10-02T04:03:27.713Z,55.66
2018-10-02T04:04:27.403Z,55.67
2018-10-02T04:05:27.125Z,55.67
2018-10-02T04:06:27.246Z,55.66
2018-10-02T04:07:27.167Z,55.68
2018-10-02T04:08:27.663Z,55.68
2018-10-02T04:09:27.195Z,55.66
2018-10-02T04:10:27.347Z,55.68
2018-10-02T04:11:27.377Z,55.69
2018-10-02T04:12:27.293Z,55.67
2018-10-02T04:13:27.373Z,55.71
2018-10-02T04:14:27.376Z,55.68
2018-10-02T04:15:27.401Z,55.69
2018-10-02T04:16:27.292Z,55.66
2018-10-02T04:17:27.121Z,55.73
2018-10-02T04:18:27.159Z,55.74
2018-10-02T04:19:27.367Z,55.68
2018-10-02T04:20:27.343Z,55.69
2018-10-02T04:21:27.163Z,55.67
2018-10-02T04:22:27.081Z,55.66
2018-10-02T04:23:27.257Z,55.68
2018-10-02T04:24:27.350Z,55.71
2018-10-02T04:25:27.364Z,55.66
2018-10-02T04:26:27.095Z,55.67
2018-10-02T04:27:27.126Z,55.75
2018-10-02T04:28:27.603Z,55.72
2018-10-02T04:29:27.118Z,55.77
2018-10-02T04:30:27.290Z,55.75
2018-10-02T04:31:27.169Z,55.68
2018-10-02T04:32:27.297Z,55.71
2018-10-02T04:33:27.150Z,55.68
2018-10-02T04:34:27.097Z,55.71
2018-10-02T04:35:27.286Z,55.66
2018-10-02T04:36:27.379Z,55.73
2018-10-02T04:37:27.242Z,55.68
2018-10-02T04:38:27.198Z,55.7
2018-10-02T04:39:27.587Z,55.66
2018-10-02T04:40:27.077Z,55.68
2018-10-02T04:41:27.301Z,55.68
2018-10-02T04:42:27.241Z,55.69
2018-10-02T04:43:27.326Z,55.68
2018-10-02T04:44:27.222Z,55.62
2018-10-02T04:45:27.113Z,55.65
2018-10-02T04:46:27.547Z,55.67
2018-10-02T04:47:27.446Z,55.69
2018-10-02T04:48:27.646Z,55.68
2018-10-02T04:49:27.159Z,55.7
2018-10-02T04:50:27.407Z,55.66
2018-10-02T04:51:27.592Z,55.69
2018-10-02T04:52:27.134Z,55.63
2018-10-02T04:53:27.612Z,55.66
2018-10-02T04:54:27.130Z,55.71
2018-10-02T04:55:27.248Z,55.68
2018-10-02T04:56:27.282Z,55.69
2018-10-02T04:57:27.166Z,55.65
2018-10-02T04:58:27.091Z,55.63
2018-10-02T04:59:27.598Z,55.66
2018-10-02T05:00:27.093Z,55.66
2018-10-02T05:01:27.222Z,55.66
2018-10-02T05:02:27.503Z,55.65
2018-10-02T05:03:27.321Z,55.62
2018-10-02T05:04:27.232Z,55.71
2018-10-02T05:05:27.508Z,55.59
2018-10-02T05:06:27.515Z,55.65
2018-10-02T05:07:27.429Z,55.71
2018-10-02T05:08:27.619Z,55.66
2018-10-02T05:09:27.059Z,55.64
2018-10-02T05:10:27.448Z,55.61
2018-10-02T05:11:27.250Z,55.6
2018-10-02T05:12:27.092Z,55.6
2018-10-02T05:13:27.300Z,55.62
2018-10-02T05:14:27.109Z,55.61
2018-10-02T05:15:27.329Z,55.63
2018-10-02T05:16:27.238Z,55.68
2018-10-02T05:17:27.605Z,55.65
2018-10-02T05:18:27.247Z,55.59
2018-10-02T05:19:27.716Z,55.59
2018-10-02T05:20:27.274Z,55.6
2018-10-02T05:21:27.088Z,55.61
2018-10-02T05:22:27.616Z,55.62
2018-10-02T05:23:27.047Z,55.62
2018-10-02T05:24:27.136Z,55.66
2018-10-02T05:25:27.138Z,55.66
2018-10-02T05:26:27.133Z,55.61
2018-10-02T05:27:27.729Z,55.63
2018-10-02T05:28:27.170Z,55.64
2018-10-02T05:29:27.184Z,55.65
2018-10-02T05:30:27.139Z,55.68
2018-10-02T05:31:27.299Z,55.72
2018-10-02T05:32:27.379Z,55.61
2018-10-02T05:33:27.316Z,55.65
2018-10-02T05:34:27.417Z,55.6
2018-10-02T05:35:27.461Z,55.65
2018-10-02T05:36:27.187Z,55.62
2018-10-02T05:37:27.210Z,55.62
2018-10-02T05:38:27.020Z,55.72
2018-10-02T05:39:27.166Z,55.67
2018-10-02T05:40:27.193Z,55.67
2018-10-02T05:41:27.054Z,55.67
2018-10-02T05:42:27.668Z,55.67
2018-10-02T05:43:27.061Z,55.62
2018-10-02T05:44:27.324Z,55.69
2018-10-02T05:45:27.237Z,55.65
2018-10-02T05:46:27.148Z,55.54
2018-10-02T05:47:27.308Z,55.61
2018-10-02T05:48:27.173Z,55.65
2018-10-02T05:49:27.325Z,55.62
2018-10-02T05:50:27.071Z,55.57
2018-10-02T05:51:27.005Z,55.58
2018-10-02T05:52:27.058Z,55.57
2018-10-02T05:53:27.216Z,55.66
2018-10-02T05:54:27.287Z,55.58
2018-10-02T05:55:27.119Z,55.59
2018-10-02T05:56:27.304Z,55.61
2018-10-02T05:57:27.179Z,55.65
2018-10-02T05:58:27.501Z,55.64
2018-10-02T05:59:27.218Z,55.64
2018-10-02T06:00:27.011Z,55.59
2018-10-02T06:01:27.391Z,55.61
2018-10-02T06:02:27.504Z,55.66
2018-10-02T06:03:27.701Z,55.66
2018-10-02T06:04:27.216Z,55.66
2018-10-02T06:05:27.225Z,55.64
2018-10-02T06:06:27.433Z,55.67
2018-10-02T06:07:27.131Z,55.62
2018-10-02T06:08:27.442Z,55.64
2018-10-02T06:09:27.248Z,55.68
2018-10-02T06:10:27.393Z,55.58
2018-10-02T06:11:27.113Z,55.61
2018-10-02T06:12:26.941Z,55.67
2018-10-02T06:13:27.325Z,55.64
2018-10-02T06:14:27.014Z,55.65
2018-10-02T06:15:27.237Z,55.68
2018-10-02T06:16:27.278Z,55.56
2018-10-02T06:17:27.323Z,55.69
2018-10-02T06:18:27.354Z,55.65
2018-10-02T06:19:27.199Z,55.65
2018-10-02T06:20:27.153Z,55.68
2018-10-02T06:21:27.221Z,55.64
2018-10-02T06:22:27.264Z,55.63
2018-10-02T06:23:27.502Z,55.59
2018-10-02T06:24:27.262Z,55.48
2018-10-02T06:25:27.116Z,55.51
2018-10-02T06:26:27.967Z,55.4
2018-10-02T06:27:27.229Z,55.34
2018-10-02T06:28:27.396Z,55.35
2018-10-02T06:29:27.258Z,55.28
2018-10-02T06:30:27.555Z,55.33
2018-10-02T06:31:27.252Z,55.3
2018-10-02T06:32:27.186Z,55.34
2018-10-02T06:33:27.215Z,55.32
2018-10-02T06:34:27.320Z,55.38
2018-10-02T06:35:27.191Z,55.27
2018-10-02T06:36:27.243Z,55.27
2018-10-02T06:37:27.173Z,55.3
2018-10-02T06:38:27.824Z,55.25
2018-10-02T06:39:27.173Z,55.22
2018-10-02T06:40:27.492Z,55.16
2018-10-02T06:41:27.354Z,55.02
2018-10-02T06:42:27.126Z,55.01
2018-10-02T06:43:27.225Z,55.08
2018-10-02T06:44:27.422Z,55.02
2018-10-02T06:45:27.498Z,54.91
2018-10-02T06:46:27.264Z,54.93
2018-10-02T06:47:27.165Z,54.97
2018-10-02T06:48:27.346Z,54.86
2018-10-02T06:49:27.193Z,54.85
2018-10-02T06:50:27.010Z,54.95
2018-10-02T06:51:27.560Z,54.7
2018-10-02T06:52:28.096Z,54.77
2018-10-02T06:53:27.234Z,54.72
2018-10-02T06:54:27.236Z,54.67
2018-10-02T06:55:27.373Z,54.69
2018-10-02T06:56:27.272Z,54.66
2018-10-02T06:57:27.678Z,54.76
2018-10-02T06:58:27.180Z,54.68
2018-10-02T06:59:27.084Z,54.65
2018-10-02T07:00:27.254Z,54.73
2018-10-02T07:01:27.108Z,54.7
2018-10-02T07:02:27.215Z,54.69
2018-10-02T07:03:27.097Z,54.6
2018-10-02T07:04:27.240Z,54.6
2018-10-02T07:05:27.424Z,54.62
2018-10-02T07:06:27.293Z,54.62
2018-10-02T07:07:27.317Z,54.6
2018-10-02T07:08:27.280Z,54.57
2018-10-02T07:09:27.179Z,54.53
2018-10-02T07:10:27.482Z,54.51
2018-10-02T07:11:27.077Z,54.29
2018-10-02T07:12:27.259Z,54.44
2018-10-02T07:13:26.955Z,54.55
2018-10-02T07:14:27.233Z,54.57
2018-10-02T07:15:27.306Z,54.58
2018-10-02T07:16:27.083Z,54.59
2018-10-02T07:17:27.313Z,54.58
2018-10-02T07:18:26.987Z,54.6
2018-10-02T07:19:27.150Z,54.65
2018-10-02T07:20:27.324Z,54.65
2018-10-02T07:21:27.169Z,54.73
2018-10-02T07:22:27.115Z,54.78
2018-10-02T07:23:27.091Z,54.78
2018-10-02T07:24:27.064Z,54.85
2018-10-02T07:25:27.038Z,54.83
2018-10-02T07:26:27.735Z,54.84
2018-10-02T07:27:27.782Z,54.87
2018-10-02T07:28:27.724Z,54.86
2018-10-02T07:29:27.315Z,54.88
2018-10-02T07:30:27.293Z,54.98
2018-10-02T07:31:27.396Z,54.95
2018-10-02T07:32:27.383Z,55
2018-10-02T07:33:27.217Z,55.02
2018-10-02T07:34:27.120Z,54.95
2018-10-02T07:35:27.424Z,55
2018-10-02T07:36:27.402Z,55.01
2018-10-02T07:37:27.675Z,55.02
2018-10-02T07:38:27.565Z,55.05
2018-10-02T07:39:27.205Z,55.06
2018-10-02T07:40:27.481Z,55.14
2018-10-02T07:41:27.482Z,55.08
2018-10-02T07:42:27.249Z,55.11
2018-10-02T07:43:27.185Z,55.08
2018-10-02T07:44:27.206Z,55.12
2018-10-02T07:45:27.449Z,55.1
2018-10-02T07:46:27.315Z,55.1
2018-10-02T07:47:27.345Z,55.12
2018-10-02T07:48:27.262Z,55.21
2018-10-02T07:49:27.167Z,55.19
2018-10-02T07:50:27.328Z,55.17
2018-10-02T07:51:27.350Z,55.18
2018-10-02T07:52:27.066Z,55.22
2018-10-02T07:53:27.363Z,55.18
2018-10-02T07:54:27.121Z,55.24
2018-10-02T07:55:27.650Z,55.24
2018-10-02T07:56:27.447Z,55.2
2018-10-02T07:57:27.211Z,55.19
2018-10-02T07:58:27.378Z,55.2
2018-10-02T07:59:27.272Z,55.19
2018-10-02T08:00:27.155Z,55.22
2018-10-02T08:01:27.499Z,55.23
2018-10-02T08:02:27.392Z,55.22
2018-10-02T08:03:27.354Z,55.22
2018-10-02T08:04:27.187Z,55.23
2018-10-02T08:05:27.373Z,55.24
2018-10-02T08:06:26.983Z,55.3
2018-10-02T08:07:27.047Z,55.31
2018-10-02T08:08:27.554Z,55.29
2018-10-02T08:09:27.075Z,55.29
2018-10-02T08:10:27.299Z,55.23
2018-10-02T08:11:27.084Z,55.31
2018-10-02T08:12:27.779Z,55.26
2018-10-02T08:13:27.490Z,55.32
2018-10-02T08:14:27.145Z,55.25
2018-10-02T08:15:26.995Z,55.33
2018-10-02T08:16:27.112Z,55.25
2018-10-02T08:17:27.565Z,55.34
2018-10-02T08:18:27.128Z,55.29
2018-10-02T08:19:27.357Z,55.33
2018-10-02T08:20:27.326Z,55.3
2018-10-02T08:21:27.141Z,55.34
2018-10-02T08:22:27.148Z,55.31
2018-10-02T08:23:27.495Z,55.37
2018-10-02T08:24:27.135Z,55.35
2018-10-02T08:25:27.105Z,55.34
2018-10-02T08:26:27.042Z,55.3
2018-10-02T08:27:27.461Z,55.34
2018-10-02T08:28:27.169Z,55.34
2018-10-02T08:29:27.171Z,55.33
2018-10-02T08:30:27.486Z,55.38
2018-10-02T08:31:27.193Z,55.3
2018-10-02T08:32:27.198Z,55.34
2018-10-02T08:33:27.061Z,55.28
2018-10-02T08:34:27.140Z,55.29
2018-10-02T08:35:27.429Z,55.33
2018-10-02T08:36:27.176Z,55.24
2018-10-02T08:37:27.132Z,55.32
2018-10-02T08:38:27.226Z,55.33
2018-10-02T08:39:26.948Z,55.29
2018-10-02T08:40:27.142Z,55.32
2018-10-02T08:41:27.161Z,55.3
2018-10-02T08:42:27.153Z,55.33
2018-10-02T08:43:27.300Z,55.34
2018-10-02T08:44:27.249Z,55.36
2018-10-02T08:45:27.053Z,55.38
2018-10-02T08:46:27.108Z,55.32
2018-10-02T08:47:27.079Z,55.3
2018-10-02T08:48:27.005Z,55.36
2018-10-02T08:49:27.358Z,55.36
2018-10-02T08:50:27.250Z,55.33
2018-10-02T08:51:26.983Z,55.3
2018-10-02T08:52:27.120Z,55.32
2018-10-02T08:53:27.055Z,55.31
2018-10-02T08:54:26.966Z,55.29
2018-10-02T08:55:27.466Z,55.39
2018-10-02T08:56:27.085Z,55.27
2018-10-02T08:57:27.122Z,55.33
2018-10-02T08:58:27.096Z,55.36
2018-10-02T08:59:27.171Z,55.36
2018-10-02T09:00:27.410Z,55.39
2018-10-02T09:01:27.149Z,55.37
2018-10-02T09:02:27.048Z,55.36
2018-10-02T09:03:27.221Z,55.39
2018-10-02T09:04:27.093Z,55.34
2018-10-02T09:05:27.531Z,55.32
2018-10-02T09:06:27.075Z,55.4
2018-10-02T09:07:27.057Z,55.41
2018-10-02T09:08:27.157Z,55.42
2018-10-02T09:09:27.053Z,55.38
2018-10-02T09:10:27.668Z,55.41
2018-10-02T09:11:26.895Z,55.45
2018-10-02T09:12:27.144Z,55.49
2018-10-02T09:13:26.987Z,55.46
2018-10-02T09:14:27.177Z,55.42
2018-10-02T09:15:27.184Z,55.44
2018-10-02T09:16:27.417Z,55.45
2018-10-02T09:17:27.105Z,55.41
2018-10-02T09:18:27.214Z,55.46
2018-10-02T09:19:27.225Z,55.45
2018-10-02T09:20:26.929Z,55.45
2018-10-02T09:21:27.239Z,55.42
2018-10-02T09:22:27.617Z,55.44
2018-10-02T09:23:27.069Z,55.42
2018-10-02T09:24:27.124Z,55.42
2018-10-02T09:25:26.915Z,55.46
2018-10-02T09:26:27.164Z,55.46
2018-10-02T09:27:27.188Z,55.45
2018-10-02T09:28:27.347Z,55.46
2018-10-02T09:29:27.508Z,55.46
2018-10-02T09:30:27.735Z,55.42
2018-10-02T09:31:27.201Z,55.48
2018-10-02T09:32:27.112Z,55.45
2018-10-02T09:33:27.404Z,55.46
2018-10-02T09:34:27.229Z,55.42
2018-10-02T09:35:27.430Z,55.47
2018-10-02T09:36:27.550Z,55.43
2018-10-02T09:37:27.449Z,55.45
2018-10-02T09:38:27.186Z,55.42
2018-10-02T09:39:27.438Z,55.41
2018-10-02T09:40:27.563Z,55.48
2018-10-02T09:41:27.404Z,55.49
2018-10-02T09:42:27.051Z,55.47
2018-10-02T09:43:27.217Z,55.48
2018-10-02T09:44:27.070Z,55.49
2018-10-02T09:45:27.204Z,55.52
2018-10-02T09:46:27.078Z,55.48
2018-10-02T09:47:27.055Z,55.48
2018-10-02T09:48:27.614Z,55.47
2018-10-02T09:49:26.909Z,55.47
2018-10-02T09:50:27.186Z,55.45
2018-10-02T09:51:27.171Z,55.49
2018-10-02T09:52:27.083Z,55.49
2018-10-02T09:53:27.098Z,55.48
2018-10-02T09:54:27.139Z,55.48
2018-10-02T09:55:27.334Z,55.45
2018-10-02T09:56:27.446Z,55.5
2018-10-02T09:57:27.001Z,55.53
2018-10-02T09:58:27.202Z,55.53
2018-10-02T09:59:27.103Z,55.55
2018-10-02T10:00:27.164Z,55.5
2018-10-02T10:01:27.046Z,55.5
2018-10-02T10:02:27.058Z,55.49
2018-10-02T10:03:27.104Z,55.49
2018-10-02T10:04:27.087Z,55.62
2018-10-02T10:05:27.125Z,55.47
2018-10-02T10:06:27.025Z,55.48
2018-10-02T10:07:27.001Z,55.51
2018-10-02T10:08:26.881Z,55.52
2018-10-02T10:09:27.036Z,55.54
2018-10-02T10:10:27.352Z,55.52
2018-10-02T10:11:26.927Z,55.56
2018-10-02T10:12:26.943Z,55.53
2018-10-02T10:13:26.902Z,55.54
2018-10-02T10:14:27.045Z,55.54
2018-10-02T10:15:27.566Z,55.55
2018-10-02T10:16:27.198Z,55.52
2018-10-02T10:17:27.464Z,55.55
2018-10-02T10:18:27.035Z,55.56
2018-10-02T10:19:27.424Z,55.51
2018-10-02T10:20:27.315Z,55.54
2018-10-02T10:21:27.219Z,55.55
2018-10-02T10:22:27.122Z,55.56
2018-10-02T10:23:27.294Z,55.51
2018-10-02T10:24:27.126Z,55.51
2018-10-02T10:25:27.470Z,55.57
2018-10-02T10:26:27.149Z,55.55
2018-10-02T10:27:27.202Z,55.54
2018-10-02T10:28:27.264Z,55.49
2018-10-02T10:29:27.103Z,55.51
2018-10-02T10:30:26.943Z,55.56
2018-10-02T10:31:27.357Z,55.46
2018-10-02T10:32:27.180Z,55.58
2018-10-02T10:33:27.145Z,55.56
2018-10-02T10:34:27.258Z,55.56
2018-10-02T10:35:27.085Z,55.56
2018-10-02T10:36:26.984Z,55.56
2018-10-02T10:37:27.135Z,55.53
2018-10-02T10:38:26.889Z,55.52
2018-10-02T10:39:27.355Z,55.56
2018-10-02T10:40:27.033Z,55.52
2018-10-02T10:41:27.104Z,55.56
2018-10-02T10:42:27.359Z,55.51
2018-10-02T10:43:27.075Z,55.57
2018-10-02T10:44:27.499Z,55.56
2018-10-02T10:45:27.080Z,55.58
2018-10-02T10:46:27.187Z,55.55
2018-10-02T10:47:27.190Z,55.55
2018-10-02T10:48:27.249Z,55.54
2018-10-02T10:49:27.085Z,55.58
2018-10-02T10:50:26.851Z,55.53
2018-10-02T10:51:27.135Z,55.56
2018-10-02T10:52:27.144Z,55.51
2018-10-02T10:53:27.427Z,55.6
2018-10-02T10:54:27.234Z,55.57
2018-10-02T10:55:27.559Z,55.59
2018-10-02T10:56:27.297Z,55.54
2018-10-02T10:57:27.145Z,55.6
2018-10-02T10:58:27.094Z,55.57
2018-10-02T10:59:27.057Z,55.58
2018-10-02T11:00:27.324Z,55.59
2018-10-02T11:01:27.209Z,55.59
2018-10-02T11:02:27.266Z,55.62
2018-10-02T11:03:27.106Z,55.59
2018-10-02T11:04:27.130Z,55.6
2018-10-02T11:05:27.089Z,55.64
2018-10-02T11:06:27.018Z,55.6
2018-10-02T11:07:27.118Z,55.6
2018-10-02T11:08:27.338Z,55.6
2018-10-02T11:09:27.402Z,55.58
2018-10-02T11:10:27.276Z,55.59
2018-10-02T11:11:27.099Z,55.64
2018-10-02T11:12:27.468Z,55.63
2018-10-02T11:13:27.110Z,55.59
2018-10-02T11:14:26.892Z,55.58
2018-10-02T11:15:27.184Z,55.56
2018-10-02T11:16:27.077Z,55.63
2018-10-02T11:17:27.219Z,55.54
2018-10-02T11:18:27.300Z,55.62
2018-10-02T11:19:27.277Z,55.57
2018-10-02T11:20:27.132Z,55.57
2018-10-02T11:21:27.017Z,55.63
2018-10-02T11:22:27.012Z,55.56
2018-10-02T11:23:26.961Z,55.59
2018-10-02T11:24:27.081Z,55.6
2018-10-02T11:25:27.222Z,55.6
2018-10-02T11:26:27.096Z,55.59
2018-10-02T11:27:27.003Z,55.6
2018-10-02T11:28:26.920Z,55.61
2018-10-02T11:29:27.238Z,55.63
2018-10-02T11:30:26.962Z,55.58
2018-10-02T11:31:27.301Z,55.61
2018-10-02T11:32:26.960Z,55.59
2018-10-02T11:33:27.004Z,55.59
2018-10-02T11:34:27.308Z,55.63
2018-10-02T11:35:27.211Z,55.56
2018-10-02T11:36:27.046Z,55.59
2018-10-02T11:37:27.136Z,55.52
2018-10-02T11:38:27.007Z,55.6
2018-10-02T11:39:26.998Z,55.59
2018-10-02T11:40:26.985Z,55.61
2018-10-02T11:41:27.116Z,55.63
2018-10-02T11:42:27.044Z,55.61
2018-10-02T11:43:27.084Z,55.64
2018-10-02T11:44:28.009Z,55.62
2018-10-02T11:45:26.835Z,55.64
2018-10-02T11:46:26.970Z,55.63
2018-10-02T11:47:27.076Z,55.68
2018-10-02T11:48:27.069Z,55.67
2018-10-02T11:49:27.346Z,55.68
2018-10-02T11:50:26.970Z,55.66
2018-10-02T11:51:27.116Z,55.65
2018-10-02T11:52:27.079Z,55.63
2018-10-02T11:53:26.961Z,55.62
2018-10-02T11:54:27.145Z,55.6
2018-10-02T11:55:27.347Z,55.62
2018-10-02T11:56:27.131Z,55.64
2018-10-02T11:57:27.151Z,55.67
2018-10-02T11:58:27.023Z,55.69
2018-10-02T11:59:26.905Z,55.67
2018-10-02T12:00:27.331Z,55.62
2018-10-02T12:01:27.648Z,55.66
2018-10-02T12:02:27.137Z,55.65
2018-10-02T12:03:27.517Z,55.66
2018-10-02T12:04:27.363Z,55.62
2018-10-02T12:05:27.110Z,55.6
2018-10-02T12:06:27.040Z,55.67
2018-10-02T12:07:27.347Z,55.65
2018-10-02T12:08:27.034Z,55.6
2018-10-02T12:09:27.203Z,55.64
2018-10-02T12:10:27.348Z,55.66
2018-10-02T12:11:27.724Z,55.62
2018-10-02T12:12:27.374Z,55.66
2018-10-02T12:13:27.514Z,55.63
2018-10-02T12:14:27.838Z,55.61
2018-10-02T12:15:27.221Z,55.67
2018-10-02T12:16:27.116Z,55.67
2018-10-02T12:17:27.238Z,55.64
2018-10-02T12:18:27.056Z,55.66
2018-10-02T12:19:27.265Z,55.64
2018-10-02T12:20:27.037Z,55.63
2018-10-02T12:21:26.944Z,55.65
2018-10-02T12:22:27.154Z,55.7
2018-10-02T12:23:26.981Z,55.68
2018-10-02T12:24:27.366Z,55.65
2018-10-02T12:25:26.835Z,55.66
2018-10-02T12:26:27.376Z,55.65
2018-10-02T12:27:26.963Z,55.65
2018-10-02T12:28:27.603Z,55.73
2018-10-02T12:29:26.851Z,55.66
2018-10-02T12:30:27.154Z,55.67
2018-10-02T12:31:27.128Z,55.64
2018-10-02T12:32:26.863Z,55.69
2018-10-02T12:33:27.229Z,55.71
2018-10-02T12:34:27.105Z,55.68
2018-10-02T12:35:27.162Z,55.64
2018-10-02T12:36:27.128Z,55.66
2018-10-02T12:37:26.964Z,55.66
2018-10-02T12:38:27.367Z,55.68
2018-10-02T12:39:27.435Z,55.66
2018-10-02T12:40:27.046Z,55.75
2018-10-02T12:41:27.389Z,55.74
2018-10-02T12:42:27.029Z,55.65
2018-10-02T12:43:27.095Z,55.74
2018-10-02T12:44:27.411Z,55.69
2018-10-02T12:45:27.368Z,55.68
2018-10-02T12:46:27.330Z,55.69
2018-10-02T12:47:27.027Z,55.73
2018-10-02T12:48:26.991Z,55.66
2018-10-02T12:49:27.005Z,55.68
2018-10-02T12:50:26.919Z,55.67
2018-10-02T12:51:26.955Z,55.7
2018-10-02T12:52:27.411Z,55.67
2018-10-02T12:53:27.001Z,55.68
2018-10-02T12:54:27.033Z,55.68
2018-10-02T12:55:26.978Z,55.67